createdAt,value
2019-05-11T00:02:14.586Z,7.70
2019-05-11T00:07:25.988Z,8.43
2019-05-11T00:12:31.905Z,7.90
2019-05-11T00:17:38.777Z,9.07
2019-05-11T00:22:48.340Z,8.90
2019-05-11T00:28:00.529Z,8.43
2019-05-11T00:33:09.602Z,10.30
2019-05-11T00:38:18.312Z,10.40
2019-05-11T00:43:28.533Z,9.47
2019-05-11T00:48:37.784Z,10.17
2019-05-11T00:53:46.911Z,10.03
2019-05-11T00:58:53.125Z,9.13
2019-05-11T01:04:00.343Z,9.33
2019-05-11T01:09:09.828Z,10.50
2019-05-11T01:14:15.965Z,9.37
2019-05-11T01:19:26.308Z,8.90
2019-05-11T01:24:32.311Z,9.73
2019-05-11T01:29:42.759Z,9.13
2019-05-11T01:34:48.675Z,9.07
2019-05-11T01:39:55.112Z,9.07
2019-05-11T01:45:04.018Z,9.87
2019-05-11T01:50:12.799Z,8.43
2019-05-11T01:55:18.211Z,8.40
2019-05-11T02:00:26.311Z,9.50
2019-05-11T02:05:35.087Z,8.63
2019-05-11T02:10:45.104Z,8.67
2019-05-11T02:15:54.653Z,8.27
2019-05-11T02:21:01.256Z,8.80
2019-05-11T02:26:09.478Z,8.70
2019-05-11T02:31:21.191Z,7.97
2019-05-11T02:36:34.706Z,9.07
2019-05-11T02:41:40.053Z,7.90
2019-05-11T02:46:48.768Z,7.37
2019-05-11T02:51:57.537Z,8.30
2019-05-11T02:57:07.991Z,7.73
2019-05-11T03:02:18.624Z,7.57
2019-05-11T03:07:29.174Z,8.07
2019-05-11T03:12:42.285Z,7.57
2019-05-11T03:17:48.749Z,7.53
2019-05-11T03:22:56.156Z,7.63
2019-05-11T03:28:03.849Z,7.50
2019-05-11T03:33:09.893Z,7.77
2019-05-11T03:38:18.839Z,7.97
2019-05-11T03:43:27.479Z,7.27
2019-05-11T03:48:33.678Z,7.93
2019-05-11T03:53:40.467Z,7.90
2019-05-11T03:58:46.930Z,7.50
2019-05-11T04:03:56.661Z,8.80
2019-05-11T04:09:07.170Z,8.23
2019-05-11T04:14:17.515Z,8.90
2019-05-11T04:19:25.440Z,8.90
2019-05-11T04:24:36.973Z,8.43
2019-05-11T04:29:43.408Z,9.10
2019-05-11T04:34:50.679Z,9.73
2019-05-11T04:39:58.455Z,10.23
2019-05-11T04:45:14.598Z,9.17
2019-05-11T04:50:22.534Z,8.57
2019-05-11T04:55:29.533Z,10.00
2019-05-11T05:00:39.876Z,9.40
2019-05-11T05:05:52.525Z,9.97
2019-05-11T05:11:01.953Z,9.60
2019-05-11T05:16:12.061Z,8.80
2019-05-11T05:21:21.793Z,8.93
2019-05-11T05:26:30.041Z,8.93
2019-05-11T05:31:37.573Z,8.63
2019-05-11T05:36:46.751Z,8.10
2019-05-11T05:41:57.509Z,7.37
2019-05-11T05:47:07.511Z,7.77
2019-05-11T05:52:16.224Z,7.93
2019-05-11T05:57:25.248Z,7.53
2019-05-11T06:02:31.778Z,7.00
2019-05-11T06:07:39.425Z,7.27
2019-05-11T06:12:49.984Z,7.73
2019-05-11T06:17:55.249Z,7.20
2019-05-11T06:23:01.108Z,6.97
2019-05-11T06:28:06.948Z,6.90
2019-05-11T06:33:16.606Z,7.90
2019-05-11T06:38:27.035Z,6.73
2019-05-11T06:43:34.725Z,6.70
2019-05-11T06:48:42.887Z,7.77
2019-05-11T06:53:48.244Z,7.27
2019-05-11T06:58:56.422Z,6.73
2019-05-11T07:04:07.697Z,6.63
2019-05-11T07:09:15.005Z,6.30
2019-05-11T07:14:24.832Z,5.87
2019-05-11T07:19:32.638Z,6.90
2019-05-11T07:24:43.456Z,6.60
2019-05-11T07:29:50.240Z,6.17
2019-05-11T07:34:57.940Z,6.07
2019-05-11T07:40:08.721Z,6.40
2019-05-11T07:45:17.879Z,6.30
2019-05-11T07:50:24.753Z,6.17
2019-05-11T07:55:31.568Z,6.50
2019-05-11T08:00:40.490Z,6.73
2019-05-11T08:05:48.444Z,6.07
2019-05-11T08:10:58.814Z,5.20
2019-05-11T08:16:08.255Z,5.60
2019-05-11T08:21:17.814Z,5.63
2019-05-11T08:26:23.257Z,4.50
2019-05-11T08:31:31.709Z,4.83
2019-05-11T08:36:39.191Z,5.30
2019-05-11T08:41:52.349Z,4.87
2019-05-11T08:47:03.118Z,4.87
2019-05-11T08:52:14.696Z,5.50
2019-05-11T08:57:21.277Z,5.00
2019-05-11T09:02:30.251Z,5.43
2019-05-11T09:07:40.102Z,5.37
2019-05-11T09:12:50.825Z,6.07
2019-05-11T09:17:59.016Z,5.23
2019-05-11T09:23:09.900Z,5.43
2019-05-11T09:28:20.017Z,5.50
2019-05-11T09:33:28.799Z,5.40
2019-05-11T09:38:40.318Z,5.33
2019-05-11T09:43:54.270Z,5.10
2019-05-11T09:49:03.066Z,5.73
2019-05-11T09:54:11.789Z,5.40
2019-05-11T09:59:23.091Z,6.65
2019-05-11T10:04:32.161Z,5.20
2019-05-11T10:09:42.526Z,4.60
2019-05-11T10:14:49.772Z,5.87
2019-05-11T10:19:59.297Z,5.53
2019-05-11T10:25:11.398Z,5.27
2019-05-11T10:30:19.771Z,4.90
2019-05-11T10:35:33.272Z,5.30
2019-05-11T10:40:40.714Z,4.80
2019-05-11T10:45:49.712Z,4.23
2019-05-11T10:50:59.455Z,4.90
2019-05-11T10:56:10.913Z,5.40
2019-05-11T11:01:23.516Z,5.00
2019-05-11T11:06:30.363Z,4.80
2019-05-11T11:11:38.409Z,4.30
2019-05-11T11:16:47.872Z,4.43
2019-05-11T11:21:54.001Z,3.70
2019-05-11T11:27:07.749Z,3.80
2019-05-11T11:32:12.046Z,4.57
2019-05-11T11:37:18.131Z,3.67
2019-05-11T11:42:28.349Z,4.07
2019-05-11T11:47:38.370Z,3.20
2019-05-11T11:52:47.742Z,3.53
2019-05-11T11:57:58.818Z,4.10
2019-05-11T12:03:08.161Z,3.92
2019-05-11T12:08:18.848Z,3.37
2019-05-11T12:13:29.840Z,3.70
2019-05-11T12:18:42.270Z,3.70
2019-05-11T12:23:53.743Z,3.20
2019-05-11T12:29:04.381Z,3.00
2019-05-11T12:34:11.295Z,2.85
2019-05-11T12:39:25.313Z,3.27
2019-05-11T12:44:31.229Z,3.30
2019-05-11T12:49:41.118Z,3.43
2019-05-11T12:54:51.452Z,2.80
2019-05-11T12:59:59.518Z,3.10
2019-05-11T13:05:11.034Z,3.20
2019-05-11T13:10:20.002Z,3.27
2019-05-11T13:15:30.494Z,2.57
2019-05-11T13:20:37.930Z,2.80
2019-05-11T13:25:48.246Z,2.50
2019-05-11T13:30:57.875Z,1.95
2019-05-11T13:36:04.907Z,2.90
2019-05-11T13:41:19.206Z,2.10
2019-05-11T13:46:27.930Z,2.40
2019-05-11T13:51:34.583Z,2.10
2019-05-11T13:56:42.457Z,2.52
2019-05-11T14:01:51.379Z,2.55
2019-05-11T14:07:08.071Z,2.70
2019-05-11T14:12:20.663Z,2.52
2019-05-11T14:17:32.382Z,2.45
2019-05-11T14:22:47.951Z,2.22
2019-05-11T14:28:05.587Z,2.05
2019-05-11T14:33:18.338Z,2.30
2019-05-11T14:38:28.278Z,1.92
2019-05-11T14:43:38.171Z,1.92
2019-05-11T14:48:49.314Z,2.80
2019-05-11T14:54:02.147Z,2.05
2019-05-11T14:59:11.169Z,2.22
2019-05-11T15:04:18.129Z,2.00
2019-05-11T15:09:28.515Z,2.07
2019-05-11T15:14:37.801Z,1.70
2019-05-11T15:19:48.854Z,2.07
2019-05-11T15:24:55.681Z,1.73
2019-05-11T15:30:04.509Z,2.13
2019-05-11T15:35:10.243Z,2.17
2019-05-11T15:40:22.167Z,1.67
2019-05-11T15:45:34.011Z,2.57
2019-05-11T15:50:45.247Z,1.80
2019-05-11T15:55:53.150Z,2.07
2019-05-11T16:01:24.356Z,2.40
2019-05-11T16:06:32.036Z,2.20
2019-05-11T16:11:43.238Z,1.77
2019-05-11T16:16:58.474Z,1.90
2019-05-11T16:22:18.806Z,1.97
2019-05-11T16:27:38.803Z,2.03
2019-05-11T16:33:02.539Z,2.30
2019-05-11T16:38:14.245Z,1.93
2019-05-11T16:43:23.998Z,2.00
2019-05-11T16:48:34.401Z,2.03
2019-05-11T16:53:48.052Z,1.70
2019-05-11T16:58:59.010Z,1.80
2019-05-11T17:04:10.433Z,1.63
2019-05-11T17:09:20.148Z,1.50
2019-05-11T17:14:28.527Z,1.63
2019-05-11T17:19:45.415Z,1.50
2019-05-11T17:24:49.642Z,1.40
2019-05-11T17:29:59.994Z,1.57
2019-05-11T17:35:09.724Z,1.40
2019-05-11T17:40:22.376Z,1.57
2019-05-11T17:45:30.231Z,1.97
2019-05-11T17:50:38.541Z,1.50
2019-05-11T17:55:48.893Z,1.50
2019-05-11T18:00:58.576Z,1.90
2019-05-11T18:06:08.498Z,1.60
2019-05-11T18:11:18.660Z,1.50
2019-05-11T18:16:26.828Z,2.00
2019-05-11T18:21:38.485Z,1.60
2019-05-11T18:26:48.681Z,1.60
2019-05-11T18:31:57.927Z,1.77
2019-05-11T18:37:08.884Z,2.33
2019-05-11T18:42:18.522Z,1.33
2019-05-11T18:47:29.963Z,1.40
2019-05-11T18:52:36.767Z,1.60
2019-05-11T18:57:43.525Z,1.63
2019-05-11T19:02:50.036Z,1.47
2019-05-11T19:08:01.567Z,1.30
2019-05-11T19:13:11.198Z,1.50
2019-05-11T19:18:19.869Z,1.47
2019-05-11T19:23:28.748Z,1.30
2019-05-11T19:28:38.478Z,1.20
2019-05-11T19:33:49.189Z,1.53
2019-05-11T19:39:00.576Z,1.50
2019-05-11T19:44:08.697Z,1.40
2019-05-11T19:49:15.099Z,1.67
2019-05-11T19:54:28.924Z,1.27
2019-05-11T19:59:38.538Z,1.60
2019-05-11T20:04:47.936Z,1.80
2019-05-11T20:09:56.035Z,1.70
2019-05-11T20:15:08.197Z,1.47
2019-05-11T20:20:18.353Z,1.70
2019-05-11T20:25:23.767Z,1.90
2019-05-11T20:30:29.148Z,1.60
2019-05-11T20:35:38.201Z,1.97
2019-05-11T20:40:48.451Z,1.53
2019-05-11T20:45:58.077Z,1.63
2019-05-11T20:51:08.199Z,1.77
2019-05-11T20:56:17.978Z,1.73
2019-05-11T21:01:29.036Z,1.53
2019-05-11T21:06:37.887Z,1.53
2019-05-11T21:11:47.966Z,1.60
2019-05-11T21:16:58.782Z,1.80
2019-05-11T21:22:08.878Z,2.17
2019-05-11T21:27:15.622Z,1.90
2019-05-11T21:32:27.853Z,1.60
2019-05-11T21:37:38.731Z,2.13
2019-05-11T21:42:50.057Z,2.10
2019-05-11T21:47:57.939Z,1.73
2019-05-11T21:53:10.564Z,1.93
2019-05-11T21:58:19.597Z,1.90
2019-05-11T22:03:31.216Z,2.43
2019-05-11T22:08:44.512Z,2.00
2019-05-11T22:14:00.509Z,2.20
2019-05-11T22:19:21.745Z,1.83
2019-05-11T22:24:28.263Z,2.47
2019-05-11T22:29:34.881Z,2.10
2019-05-11T22:34:40.663Z,2.60
2019-05-11T22:39:49.790Z,2.60
2019-05-11T22:44:57.669Z,2.67
2019-05-11T22:50:03.341Z,2.40
2019-05-11T22:55:11.974Z,2.53
2019-05-11T23:00:18.469Z,2.43
2019-05-11T23:05:24.458Z,2.30
2019-05-11T23:10:33.594Z,2.47
2019-05-11T23:15:43.614Z,2.40
2019-05-11T23:20:52.612Z,2.60
2019-05-11T23:26:03.426Z,2.90
2019-05-11T23:31:12.279Z,2.70
2019-05-11T23:36:21.119Z,2.40
2019-05-11T23:41:29.056Z,2.67
2019-05-11T23:46:38.638Z,2.37
2019-05-11T23:51:47.825Z,2.98
2019-05-11T23:56:55.120Z,2.90
